Etusivu
METAR-TAF:

METAR-TAF

Lentoasemat :

Pasto, Kolumbia

Leveyspiiri: 01-25N, Pituuspiiri: 077-16W, korkeus merenpinnasta: 1826 m

Tämänhetkinen sää

Tämä raportti tehtiin 59 minuuttia sitten, kello 12.00 UTC
tyyntä
Lämpötila 14°C
Kosteus 100%
Ilmanpaine 1022 hPa
Näkyvyys: 1000 m
Pilvistä 500 ft:n korkeudessa
sumuhattaroita

METAR: SKPS 021200Z 00000KT 8000 1000N BCFG OVC005 14/14 A3018

Aika: 07:59 (12:59 UTC)


TAF: puuttuu

Säähavainnot ja -ennusteet yli 4000 lentoasemalta (METAR- ja TAF-raportit).

Käytössä olevat sääasemat on merkitty karttaan keltaisilla ja punaisilla pisteillä.

Aseta hiiri pisteen päälle nähdäksesi sääaseman nimen.

Klikkaa sitten nähdäksesi säähavainnot ja -ennusteet.

Kartan vaihtaminen: klikkaa mustalla rastilla varustettuja vihreitä pisteitä, niin voit zoomata sisään; viivalla varustettua vihreää pistettä, niin voit zoomata ulos tai vihreitä nuolia, niin pääset viereisille kartoille.


METAR-TAF: